Time;durP1;ratioP1;P1;durP2;ratioP2;P2;SDS_P1;SDS_P2;PMS_P1;PMS_P2;Temp;Humidity;BMP_temperature;BMP_pressure;BME280_temperature;BME280_humidity;BME280_pressure;Samples;Min_cycle;Max_cycle;Signal;HPM_P1;HPM_P2
2022/08/12 00:42:59;;;;;;;7.97;6.75;;;17.40;99.90;;;;;;5090716;28;20060;-82
2022/08/12 00:45:25;;;;;;;10.18;7.70;;;17.30;1.00;;;;;;5048374;28;20575;-83
2022/08/12 00:47:52;;;;;;;11.60;7.50;;;17.30;23.30;;;;;;5068062;28;20234;-82
2022/08/12 00:50:20;;;;;;;9.40;7.30;;;17.10;1.00;;;;;;5050135;28;20033;-83
2022/08/12 00:52:48;;;;;;;10.63;7.03;;;17.10;38.50;;;;;;5047485;28;20110;-83
2022/08/12 00:55:15;;;;;;;9.23;6.47;;;17.10;99.90;;;;;;5054506;28;20048;-83
2022/08/12 00:57:46;;;;;;;9.63;7.07;;;17.00;1.00;;;;;;5047123;28;20540;-83
2022/08/12 01:00:20;;;;;;;8.68;6.55;;;17.00;1.00;;;;;;5047753;28;20123;-81
2022/08/12 01:02:50;;;;;;;10.23;6.82;;;16.90;1.00;;;;;;5064148;28;20051;-82
2022/08/12 01:13:38;;;;;;;8.88;6.85;;;16.80;99.90;;;;;;5062612;28;20059;-82
2022/08/12 01:16:06;;;;;;;9.52;6.57;;;16.60;13.20;;;;;;5072402;28;20044;-82
2022/08/12 01:18:35;;;;;;;7.40;6.47;;;16.60;1.00;;;;;;5095392;28;20048;-83
2022/08/12 01:21:25;;;;;;;8.32;6.30;;;16.60;73.40;;;;;;5079656;28;20551;-82
2022/08/12 01:23:54;;;;;;;11.25;6.45;;;16.50;99.90;;;;;;5054399;28;20083;-82
2022/08/12 01:26:22;;;;;;;10.30;6.88;;;16.60;99.90;;;;;;5046857;28;20411;-82
2022/08/12 01:28:51;;;;;;;7.50;6.20;;;16.50;99.90;;;;;;5051449;28;20044;-82
2022/08/12 01:31:18;;;;;;;8.32;7.50;;;16.40;1.00;;;;;;5090678;28;20459;-82
2022/08/12 01:34:06;;;;;;;7.13;6.43;;;16.40;90.50;;;;;;5091088;28;20040;-83
2022/08/12 01:36:45;;;;;;;8.05;6.68;;;16.30;46.40;;;;;;5095383;28;20045;-82
2022/08/12 01:39:14;;;;;;;8.80;6.78;;;16.40;99.90;;;;;;5060834;28;20078;-82
2022/08/12 01:41:50;;;;;;;7.82;7.00;;;16.30;99.90;;;;;;5048216;28;20071;-82
2022/08/12 01:44:18;;;;;;;8.63;7.70;;;16.30;99.90;;;;;;5043999;28;20044;-82
2022/08/12 01:47:04;;;;;;;7.50;6.70;;;16.40;99.90;;;;;;5064236;28;20052;-82
2022/08/12 01:50:04;;;;;;;8.35;7.00;;;16.40;99.90;;;;;;5043912;28;20059;-82
2022/08/12 01:52:45;;;;;;;8.80;7.88;;;16.40;99.90;;;;;;5093860;28;20045;-83
2022/08/12 01:55:13;;;;;;;9.68;7.70;;;16.50;1.00;;;;;;5073917;28;20140;-82
2022/08/12 01:57:46;;;;;;;10.43;9.32;;;16.40;1.00;;;;;;5045885;28;20036;-82
2022/08/12 02:00:14;;;;;;;8.70;7.80;;;16.40;95.80;;;;;;5094647;28;20074;-82
2022/08/12 02:03:18;;;;;;;8.82;7.43;;;16.30;8.80;;;;;;5074941;28;20059;-82
2022/08/12 02:11:33;;;;;;;11.48;8.57;;;16.30;3.00;;;;;;5083603;28;20079;-82
2022/08/12 02:14:36;;;;;;;10.75;8.63;;;16.20;58.10;;;;;;5074644;28;20040;-82
2022/08/12 02:17:30;;;;;;;12.13;9.60;;;16.10;99.90;;;;;;5073884;28;20501;-82
2022/08/12 02:20:20;;;;;;;10.60;9.23;;;16.10;99.90;;;;;;5085048;28;20043;-82
2022/08/12 02:22:47;;;;;;;14.55;10.05;;;16.00;99.90;;;;;;5069070;28;20039;-82
2022/08/12 02:25:30;;;;;;;10.45;9.35;;;16.00;99.90;;;;;;5050676;28;20044;-82
2022/08/12 02:27:56;;;;;;;10.25;8.52;;;15.90;56.10;;;;;;5047951;28;20143;-82
2022/08/12 02:30:25;;;;;;;13.60;9.25;;;15.80;55.60;;;;;;5048173;28;20499;-82
2022/08/12 02:32:53;;;;;;;10.75;9.32;;;15.90;99.90;;;;;;5046233;28;20119;-82
2022/08/12 02:35:21;;;;;;;10.98;8.80;;;15.90;99.90;;;;;;5047285;28;20119;-82
2022/08/12 02:37:52;;;;;;;10.07;8.48;;;15.90;19.40;;;;;;5041492;28;20044;-82
2022/08/12 02:40:19;;;;;;;11.60;10.40;;;15.90;19.70;;;;;;5045457;28;20040;-82
2022/08/12 02:43:13;;;;;;;13.88;10.43;;;15.90;99.90;;;;;;5059454;28;20061;-82
2022/08/12 02:46:07;;;;;;;11.15;9.38;;;15.90;99.90;;;;;;5072067;28;20044;-81
2022/08/12 02:49:19;;;;;;;9.00;8.00;;;15.90;99.90;;;;;;5065523;28;20032;-82
2022/08/12 02:51:44;;;;;;;10.63;9.15;;;15.80;8.50;;;;;;5046952;28;20048;-82
2022/08/12 02:54:11;;;;;;;11.25;10.15;;;15.80;1.00;;;;;;5067347;28;20524;-82
2022/08/12 02:56:39;;;;;;;11.40;10.18;;;15.80;99.90;;;;;;5079462;28;20056;-81
2022/08/12 02:59:09;;;;;;;12.52;10.25;;;15.80;99.90;;;;;;5047399;28;20044;-81
2022/08/12 03:01:46;;;;;;;13.18;11.25;;;15.80;99.90;;;;;;5071553;28;20056;-81
2022/08/12 03:04:21;;;;;;;12.65;10.20;;;15.90;1.00;;;;;;5062956;28;20045;-82
2022/08/12 03:06:52;;;;;;;13.60;10.13;;;15.80;99.90;;;;;;5064045;28;20040;-82
2022/08/12 03:09:21;;;;;;;12.63;10.57;;;15.90;99.90;;;;;;5076376;28;20040;-82
2022/08/12 03:11:58;;;;;;;12.77;10.40;;;15.90;99.90;;;;;;5049590;28;20036;-81
2022/08/12 03:14:28;;;;;;;13.40;11.32;;;15.90;99.90;;;;;;5047691;28;20321;-81
2022/08/12 03:17:08;;;;;;;12.45;9.38;;;16.00;1.00;;;;;;5066077;28;20040;-81
2022/08/12 03:19:38;;;;;;;14.00;12.13;;;16.00;1.00;;;;;;5060313;28;20055;-82
2022/08/12 03:22:11;;;;;;;12.18;10.88;;;16.00;78.50;;;;;;5083279;28;20513;-81
2022/08/12 03:24:41;;;;;;;12.88;10.57;;;15.90;1.00;;;;;;5071266;28;20040;-82
2022/08/12 03:27:09;;;;;;;11.43;10.13;;;15.90;99.90;;;;;;5076502;28;20037;-81
2022/08/12 03:29:37;;;;;;;14.27;11.48;;;15.90;1.00;;;;;;5048598;28;20036;-81
2022/08/12 03:32:03;;;;;;;14.18;10.75;;;16.00;16.70;;;;;;5050466;28;20053;-81
2022/08/12 03:34:34;;;;;;;14.63;11.35;;;15.90;1.00;;;;;;5063743;28;20135;-81
2022/08/12 03:37:01;;;;;;;13.63;11.30;;;15.90;51.20;;;;;;5074073;28;20067;-81
2022/08/12 03:39:49;;;;;;;17.65;12.00;;;15.90;99.90;;;;;;5077216;28;20040;-82
2022/08/12 03:42:26;;;;;;;14.25;11.20;;;15.90;99.90;;;;;;5059085;28;20044;-81
2022/08/12 04:01:54;;;;;;;15.18;12.15;;;15.90;99.90;;;;;;5063969;28;20056;-81
2022/08/12 04:04:22;;;;;;;13.82;11.50;;;15.90;99.90;;;;;;5072710;28;20511;-81
2022/08/12 04:06:49;;;;;;;12.60;11.30;;;15.90;99.90;;;;;;5049995;28;20046;-81
2022/08/12 04:09:19;;;;;;;15.30;11.32;;;15.90;99.90;;;;;;5090720;28;20159;-81
2022/08/12 04:14:30;;;;;;;13.55;11.38;;;16.00;99.90;;;;;;5095280;28;20131;-81
2022/08/12 04:16:59;;;;;;;12.18;10.82;;;16.00;99.90;;;;;;5072946;28;20368;-81
2022/08/12 04:19:25;;;;;;;12.40;10.60;;;16.10;99.90;;;;;;5076657;28;20036;-81
2022/08/12 04:21:53;;;;;;;13.25;11.23;;;16.10;99.90;;;;;;5089865;28;20127;-81
2022/08/12 04:24:19;;;;;;;12.25;10.43;;;16.00;99.90;;;;;;5051998;28;20557;-80
2022/08/12 04:26:45;;;;;;;13.00;10.38;;;16.00;99.90;;;;;;5045601;28;20082;-81
2022/08/12 04:29:11;;;;;;;9.75;8.75;;;16.10;99.90;;;;;;5066259;28;20060;-81
2022/08/12 04:31:42;;;;;;;11.30;8.20;;;15.90;16.30;;;;;;5052886;28;20047;-81
2022/08/12 04:34:10;;;;;;;10.13;8.60;;;15.90;1.00;;;;;;5096825;28;20048;-81
2022/08/12 04:36:38;;;;;;;12.02;9.57;;;15.90;1.00;;;;;;5070049;28;20673;-81
2022/08/12 04:39:06;;;;;;;10.45;9.10;;;16.10;1.00;;;;;;5073692;28;20044;-81
2022/08/12 04:41:33;;;;;;;13.82;9.38;;;16.00;99.90;;;;;;5075508;28;20670;-81
2022/08/12 04:43:59;;;;;;;10.93;9.13;;;16.00;1.00;;;;;;5044693;28;20087;-81
2022/08/12 04:46:25;;;;;;;10.27;8.25;;;16.00;99.90;;;;;;5043543;28;20080;-81
2022/08/12 04:48:52;;;;;;;9.05;7.60;;;16.10;99.90;;;;;;5077939;28;20048;-81
2022/08/12 04:51:22;;;;;;;12.60;9.50;;;16.00;99.90;;;;;;5095364;28;20072;-81
2022/08/12 04:53:49;;;;;;;12.25;9.10;;;16.10;99.90;;;;;;5045052;28;20811;-81
2022/08/12 04:56:15;;;;;;;13.70;8.40;;;16.10;99.90;;;;;;5061798;28;20274;-81
2022/08/12 04:58:41;;;;;;;11.15;8.93;;;16.20;99.90;;;;;;5061061;28;20036;-81
2022/08/12 05:01:09;;;;;;;11.07;8.85;;;16.20;99.90;;;;;;5078102;28;20132;-81
2022/08/12 05:03:35;;;;;;;10.13;9.10;;;16.30;99.90;;;;;;5094794;28;20068;-81
2022/08/12 05:06:01;;;;;;;12.75;9.00;;;16.40;99.90;;;;;;5077851;28;20040;-81
2022/08/12 05:08:27;;;;;;;11.27;9.25;;;16.40;99.90;;;;;;5045493;28;20036;-81
2022/08/12 05:10:53;;;;;;;9.23;8.27;;;16.50;99.90;;;;;;5053398;28;20706;-81
2022/08/12 05:13:39;;;;;;;11.90;8.57;;;16.60;99.90;;;;;;5075594;28;20151;-81
2022/08/12 05:16:06;;;;;;;10.23;8.38;;;16.70;99.90;;;;;;5057878;28;20090;-81
2022/08/12 05:18:37;;;;;;;10.75;7.90;;;16.80;19.70;;;;;;5051839;28;20078;-81
2022/08/12 05:21:06;;;;;;;9.68;8.52;;;16.90;10.90;;;;;;5051626;28;20407;-81
2022/08/12 05:23:34;;;;;;;11.73;7.50;;;17.00;1.00;;;;;;5069788;28;20450;-81
2022/08/12 05:26:00;;;;;;;8.32;7.45;;;17.00;1.00;;;;;;5050754;28;20035;-81
2022/08/12 05:28:29;;;;;;;8.73;6.80;;;17.20;99.90;;;;;;5048801;28;20071;-81
2022/08/12 05:30:57;;;;;;;9.20;6.90;;;17.30;99.90;;;;;;5088678;28;20624;-81
2022/08/12 05:33:30;;;;;;;9.40;7.57;;;17.40;99.90;;;;;;5065311;28;20055;-82
2022/08/12 05:35:56;;;;;;;13.23;6.80;;;17.50;99.90;;;;;;5072476;28;20040;-82
2022/08/12 05:41:17;;;;;;;8.43;6.15;;;17.70;99.90;;;;;;5060047;28;20356;-81
2022/08/12 05:43:45;;;;;;;8.73;6.43;;;17.80;70.30;;;;;;5060092;28;20429;-82
2022/08/12 05:46:11;;;;;;;7.38;5.93;;;17.90;28.70;;;;;;5041433;28;20048;-81
2022/08/12 05:48:37;;;;;;;8.13;6.07;;;18.10;19.30;;;;;;5065009;28;20048;-81
2022/08/12 05:51:02;;;;;;;7.80;5.60;;;18.10;1.00;;;;;;5044682;28;20047;-81
2022/08/12 05:53:28;;;;;;;9.18;6.07;;;18.20;1.00;;;;;;5066189;28;20041;-81
2022/08/12 05:55:54;;;;;;;6.85;5.35;;;18.30;99.90;;;;;;5068092;28;20043;-82
2022/08/12 05:58:20;;;;;;;7.97;5.43;;;18.40;99.90;;;;;;5043512;28;20420;-82
2022/08/12 06:00:45;;;;;;;7.85;5.80;;;18.50;99.90;;;;;;5058963;28;20082;-82
2022/08/12 06:03:15;;;;;;;8.10;5.70;;;18.60;99.90;;;;;;5060251;28;20096;-81
2022/08/12 06:05:43;;;;;;;8.63;6.22;;;18.70;99.90;;;;;;5076561;28;20131;-82
2022/08/12 06:08:12;;;;;;;8.98;5.32;;;18.80;99.90;;;;;;5077886;28;20123;-82
2022/08/12 06:10:37;;;;;;;8.82;5.40;;;18.90;99.90;;;;;;5075048;28;20036;-82
2022/08/12 06:13:05;;;;;;;5.53;4.65;;;19.00;90.20;;;;;;5056973;28;20028;-81
2022/08/12 06:15:36;;;;;;;6.88;4.90;;;19.10;41.20;;;;;;5042711;28;20169;-82
2022/08/12 06:18:08;;;;;;;7.50;4.80;;;19.10;56.40;;;;;;5045298;28;20127;-82
2022/08/12 06:20:34;;;;;;;8.20;5.15;;;19.20;1.00;;;;;;5044980;28;20048;-82
2022/08/12 06:23:00;;;;;;;5.25;4.68;;;19.30;1.00;;;;;;5044472;28;20119;-82
2022/08/12 06:25:28;;;;;;;7.22;4.80;;;19.40;1.00;;;;;;5044910;28;20094;-82
2022/08/12 06:28:02;;;;;;;8.90;4.95;;;19.50;1.00;;;;;;5038296;28;20413;-82
2022/08/12 06:30:29;;;;;;;6.75;4.30;;;19.50;1.00;;;;;;5042839;28;20047;-82
2022/08/12 06:32:54;;;;;;;6.32;4.20;;;19.60;1.00;;;;;;5078423;28;20211;-83
2022/08/12 06:35:21;;;;;;;6.10;4.35;;;19.70;99.90;;;;;;5078323;28;20285;-82
2022/08/12 06:37:51;;;;;;;6.45;4.15;;;19.80;99.90;;;;;;5058368;28;20495;-83
2022/08/12 06:43:08;;;;;;;6.88;4.47;;;20.00;99.90;;;;;;5037920;28;20059;-81
2022/08/12 06:45:43;;;;;;;8.30;4.75;;;20.10;99.90;;;;;;5041050;28;20055;-82
2022/08/12 06:48:12;;;;;;;5.85;4.60;;;20.20;99.90;;;;;;5046014;28;20043;-83
2022/08/12 06:50:38;;;;;;;6.35;4.20;;;20.20;99.90;;;;;;5054387;28;20040;-82
2022/08/12 06:53:05;;;;;;;9.10;4.32;;;20.30;99.90;;;;;;5040095;28;20040;-82
2022/08/12 06:55:31;;;;;;;6.32;4.20;;;20.30;99.90;;;;;;5039334;28;20072;-82
2022/08/12 06:58:02;;;;;;;5.47;4.20;;;20.40;99.90;;;;;;5068223;28;20035;-83
2022/08/12 07:00:34;;;;;;;9.40;4.65;;;20.50;99.90;;;;;;5055589;28;20032;-82
2022/08/12 07:03:03;;;;;;;6.65;4.30;;;20.60;99.90;;;;;;5041585;28;20059;-82
2022/08/12 07:05:31;;;;;;;5.53;4.10;;;20.70;99.90;;;;;;5060908;28;20149;-82
2022/08/12 07:07:57;;;;;;;5.97;4.10;;;20.70;99.90;;;;;;5043141;28;20886;-83
2022/08/12 07:10:23;;;;;;;9.98;4.50;;;20.80;85.00;;;;;;5045437;28;20262;-82
2022/08/12 07:12:53;;;;;;;6.32;4.28;;;20.90;99.90;;;;;;5057721;28;20131;-82
2022/08/12 07:15:24;;;;;;;7.13;4.00;;;21.00;63.20;;;;;;5049271;28;20047;-82
2022/08/12 07:18:09;;;;;;;18.42;4.40;;;21.10;91.90;;;;;;5062519;28;20044;-82
2022/08/12 07:20:35;;;;;;;6.47;3.80;;;21.30;24.60;;;;;;5037946;28;20033;-82
2022/08/12 07:23:03;;;;;;;10.35;4.00;;;21.30;36.40;;;;;;5041647;28;20040;-83
2022/08/12 07:25:30;;;;;;;6.00;3.58;;;21.40;1.00;;;;;;5044206;28;20047;-82
2022/08/12 07:28:00;;;;;;;5.38;3.65;;;21.50;1.00;;;;;;5072744;28;20488;-82
2022/08/12 07:30:26;;;;;;;7.97;3.88;;;21.60;1.00;;;;;;5059536;28;20048;-82
2022/08/12 07:32:53;;;;;;;6.72;3.88;;;21.60;1.00;;;;;;5062733;28;20115;-82
2022/08/12 07:35:19;;;;;;;9.25;3.40;;;21.70;1.00;;;;;;5094351;28;20473;-82
2022/08/12 07:37:49;;;;;;;4.57;3.72;;;21.90;19.20;;;;;;5061687;28;20032;-82
2022/08/12 07:40:17;;;;;;;9.32;4.07;;;22.00;1.00;;;;;;5075400;28;20032;-82
2022/08/12 07:42:43;;;;;;;6.30;4.07;;;22.10;1.00;;;;;;5047796;28;20040;-82
2022/08/12 07:45:10;;;;;;;7.25;3.88;;;22.10;1.00;;;;;;5050527;28;20445;-83
2022/08/12 07:47:36;;;;;;;10.82;4.38;;;22.30;1.00;;;;;;5063965;28;20074;-82
2022/08/12 07:50:07;;;;;;;6.53;3.50;;;22.40;1.00;;;;;;5045711;28;20115;-83
2022/08/12 07:52:39;;;;;;;5.03;3.67;;;22.50;1.00;;;;;;5084424;28;20472;-83
2022/08/12 07:55:06;;;;;;;6.15;3.08;;;22.60;1.00;;;;;;5043758;28;20071;-82
2022/08/12 07:57:32;;;;;;;7.65;3.70;;;22.80;1.00;;;;;;5049950;28;20282;-83
2022/08/12 08:00:03;;;;;;;6.28;3.35;;;22.80;1.00;;;;;;5093799;28;20040;-82
2022/08/12 08:02:35;;;;;;;8.35;3.80;;;22.90;99.90;;;;;;5048199;28;20048;-82
2022/08/12 08:05:02;;;;;;;9.50;3.63;;;23.00;99.90;;;;;;5071793;28;20141;-83
2022/08/12 08:07:28;;;;;;;9.07;4.00;;;23.10;99.90;;;;;;5061868;28;20115;-82
2022/08/12 08:09:57;;;;;;;7.90;4.13;;;23.30;99.90;;;;;;5046748;28;20525;-83
2022/08/12 08:15:09;;;;;;;10.13;4.30;;;23.50;99.90;;;;;;5061857;28;20049;-83
2022/08/12 08:17:37;;;;;;;5.20;3.88;;;23.50;99.90;;;;;;5074296;28;20028;-83
2022/08/12 08:20:04;;;;;;;8.95;3.67;;;23.70;99.90;;;;;;5030229;28;20043;-83
2022/08/12 08:22:37;;;;;;;6.25;4.00;;;23.90;99.90;;;;;;5045608;28;20071;-83
2022/08/12 08:25:07;;;;;;;7.13;3.17;;;24.00;99.90;;;;;;5050546;28;20076;-83
2022/08/12 08:27:46;;;;;;;8.68;3.63;;;24.10;99.90;;;;;;5072369;28;20223;-82
2022/08/12 08:30:13;;;;;;;5.13;3.72;;;24.30;99.90;;;;;;5047450;28;20066;-82
2022/08/12 08:32:39;;;;;;;5.72;3.45;;;24.40;99.90;;;;;;5067366;28;20063;-83
2022/08/12 08:35:12;;;;;;;4.88;3.72;;;24.50;99.90;;;;;;5094130;28;20032;-83
2022/08/12 08:37:37;;;;;;;5.43;3.20;;;24.70;94.10;;;;;;5048142;28;20044;-83
2022/08/12 08:42:53;;;;;;;5.93;3.70;;;24.90;83.10;;;;;;5054860;28;20597;-83
2022/08/12 08:45:22;;;;;;;7.22;3.78;;;25.10;21.10;;;;;;5043778;28;20024;-83
2022/08/12 08:47:48;;;;;;;3.67;3.03;;;25.10;1.00;;;;;;5043227;28;20063;-83
2022/08/12 08:50:15;;;;;;;5.22;3.20;;;25.30;1.00;;;;;;5052172;28;20049;-83
2022/08/12 08:52:44;;;;;;;6.50;3.55;;;25.50;1.00;;;;;;5040009;28;20039;-83
2022/08/12 08:55:12;;;;;;;8.75;3.40;;;25.50;1.00;;;;;;5042212;28;20064;-83
2022/08/12 08:57:44;;;;;;;6.93;3.28;;;25.60;1.00;;;;;;5041437;28;20040;-83
2022/08/12 09:00:19;;;;;;;7.10;3.27;;;25.60;99.90;;;;;;5046359;28;20463;-83
2022/08/12 09:02:46;;;;;;;6.78;3.40;;;25.80;99.90;;;;;;5038437;28;20063;-83
2022/08/12 09:05:13;;;;;;;8.10;3.35;;;26.00;99.90;;;;;;5056080;28;20037;-83
2022/08/12 09:07:47;;;;;;;5.65;2.92;;;26.20;99.90;;;;;;5057997;28;20375;-83
2022/08/12 09:10:15;;;;;;;6.40;2.97;;;26.20;99.90;;;;;;5036259;28;20036;-83
2022/08/12 09:15:34;;;;;;;7.38;2.92;;;26.50;99.90;;;;;;5054754;28;20040;-84
2022/08/12 09:18:01;;;;;;;5.65;2.88;;;26.80;99.90;;;;;;5042935;28;20044;-83
2022/08/12 09:20:29;;;;;;;7.82;3.13;;;26.80;99.90;;;;;;5056977;28;20043;-84
2022/08/12 09:23:00;;;;;;;6.05;2.95;;;26.90;99.90;;;;;;5044211;28;20032;-84
2022/08/12 09:25:28;;;;;;;6.68;3.50;;;27.10;99.90;;;;;;5057769;28;20119;-83
2022/08/12 09:27:54;;;;;;;5.30;3.40;;;27.20;99.90;;;;;;5044141;28;20269;-83
2022/08/12 09:30:21;;;;;;;5.35;2.92;;;27.30;99.90;;;;;;5045790;28;20143;-83
2022/08/12 09:32:51;;;;;;;5.28;3.03;;;27.40;99.90;;;;;;5043079;28;20248;-83
2022/08/12 09:35:30;;;;;;;6.00;3.70;;;27.40;99.90;;;;;;5087540;28;20116;-83
2022/08/12 09:37:56;;;;;;;7.70;3.78;;;27.50;99.90;;;;;;5059141;28;20485;-83
2022/08/12 09:40:23;;;;;;;5.93;3.55;;;27.70;99.90;;;;;;5051476;28;20038;-83
2022/08/12 09:45:36;;;;;;;7.10;3.55;;;27.90;99.90;;;;;;5063641;28;20051;-84
2022/08/12 09:48:07;;;;;;;4.10;3.40;;;27.90;99.90;;;;;;5067689;28;20045;-83
2022/08/12 09:50:36;;;;;;;7.95;3.25;;;27.90;99.90;;;;;;5075462;28;20718;-83
2022/08/12 09:53:06;;;;;;;6.93;3.20;;;28.20;99.90;;;;;;5061717;28;20064;-84
2022/08/12 09:55:33;;;;;;;7.03;2.88;;;28.30;99.90;;;;;;5062161;28;20045;-83
2022/08/12 09:57:59;;;;;;;7.15;2.80;;;28.40;99.90;;;;;;5094529;28;20048;-83
2022/08/12 10:00:26;;;;;;;5.40;3.05;;;28.40;83.00;;;;;;5060710;28;20047;-83
2022/08/12 10:02:58;;;;;;;10.02;3.00;;;28.50;67.70;;;;;;5063363;28;20280;-84
2022/08/12 10:05:23;;;;;;;6.22;2.95;;;28.70;49.20;;;;;;5059161;28;20044;-83
2022/08/12 10:07:49;;;;;;;7.35;3.13;;;28.80;57.00;;;;;;5045549;28;20455;-84
2022/08/12 10:10:14;;;;;;;7.22;2.60;;;29.00;35.40;;;;;;5093528;28;20556;-83
2022/08/12 10:15:27;;;;;;;4.70;2.93;;;29.10;28.90;;;;;;5094340;28;20044;-84
2022/08/12 10:17:53;;;;;;;4.93;2.65;;;29.20;16.30;;;;;;5093947;28;20282;-83
2022/08/12 10:20:19;;;;;;;6.55;2.65;;;29.20;10.30;;;;;;5046339;28;20039;-83
2022/08/12 10:22:56;;;;;;;5.35;2.70;;;29.40;1.00;;;;;;5069954;28;20116;-83
2022/08/12 10:31:01;;;;;;;4.60;2.90;;;29.80;1.00;;;;;;5008476;28;20073;-84
2022/08/12 10:33:29;;;;;;;4.15;2.70;;;29.70;1.00;;;;;;5078012;28;20099;-84
2022/08/12 10:35:57;;;;;;;7.20;2.70;;;29.90;1.00;;;;;;5047335;28;20068;-83
2022/08/12 10:38:23;;;;;;;4.32;2.70;;;29.90;1.00;;;;;;5091935;28;20420;-84
2022/08/12 10:43:42;;;;;;;5.45;2.50;;;30.00;1.00;;;;;;5060677;28;20044;-84
2022/08/12 10:46:16;;;;;;;6.00;2.60;;;30.30;1.00;;;;;;5060937;28;20492;-84
2022/08/12 10:48:46;;;;;;;;;;;30.40;1.00;;;;;;5046560;28;20049;-83
2022/08/12 10:51:17;;;;;;;5.47;2.35;;;30.40;1.00;;;;;;5046020;28;19923;-83
2022/08/12 10:53:47;;;;;;;3.08;2.38;;;30.50;1.00;;;;;;5040049;28;20068;-84
2022/08/12 10:56:17;;;;;;;4.75;2.30;;;30.60;1.00;;;;;;5077000;28;20388;-84
2022/08/12 10:58:46;;;;;;;5.55;2.33;;;30.70;1.00;;;;;;5076688;28;20127;-84
2022/08/12 11:01:12;;;;;;;8.00;2.53;;;30.40;1.00;;;;;;5068376;28;20041;-84
2022/08/12 11:03:40;;;;;;;4.28;2.30;;;30.70;1.00;;;;;;5078904;28;20388;-84
2022/08/12 11:06:07;;;;;;;5.03;2.30;;;30.60;1.00;;;;;;5048398;28;20087;-83
2022/08/12 11:08:36;;;;;;;5.55;2.55;;;31.00;1.00;;;;;;5059601;28;20079;-84
2022/08/12 11:11:08;;;;;;;3.83;2.55;;;31.10;1.00;;;;;;5093968;28;20088;-84
2022/08/12 11:13:34;;;;;;;4.13;2.10;;;31.00;1.00;;;;;;5043117;28;20044;-84
2022/08/12 11:16:01;;;;;;;3.95;2.13;;;31.10;1.00;;;;;;5095601;28;20048;-84
2022/08/12 11:18:28;;;;;;;3.65;2.17;;;31.00;1.00;;;;;;5077593;28;20079;-84
2022/08/12 11:20:54;;;;;;;5.93;2.50;;;31.40;1.00;;;;;;5049375;28;20135;-84
2022/08/12 11:23:23;;;;;;;3.03;2.03;;;31.40;1.00;;;;;;5048515;28;20131;-83
2022/08/12 11:25:49;;;;;;;4.82;2.13;;;31.50;1.00;;;;;;5079547;28;20056;-84
2022/08/12 11:28:15;;;;;;;2.55;2.05;;;31.20;1.00;;;;;;5097960;28;20032;-84
2022/08/12 11:30:41;;;;;;;4.28;2.30;;;31.60;1.00;;;;;;5063026;28;20045;-84
2022/08/12 11:33:07;;;;;;;3.58;1.85;;;31.70;1.00;;;;;;5061653;28;20550;-85
2022/08/12 11:35:35;;;;;;;3.80;2.30;;;31.80;1.00;;;;;;5072934;28;20040;-83
2022/08/12 11:38:02;;;;;;;5.70;2.25;;;31.90;1.00;;;;;;5073320;28;20059;-84
2022/08/12 11:40:28;;;;;;;3.22;1.98;;;32.10;1.00;;;;;;5051215;28;20399;-84
2022/08/12 11:42:55;;;;;;;2.40;2.10;;;32.10;1.00;;;;;;5099045;28;20541;-84
2022/08/12 11:45:21;;;;;;;5.07;2.38;;;31.90;1.00;;;;;;5070744;28;20289;-84
2022/08/12 11:47:46;;;;;;;3.42;2.20;;;32.20;1.00;;;;;;5064802;28;20178;-84
2022/08/12 11:50:12;;;;;;;5.13;2.05;;;32.10;1.00;;;;;;5082004;28;20547;-83
2022/08/12 11:52:38;;;;;;;5.25;2.00;;;32.40;1.00;;;;;;5082013;28;20050;-84
2022/08/12 11:55:04;;;;;;;5.75;2.00;;;32.20;99.90;;;;;;5081652;28;20052;-86
2022/08/12 11:57:30;;;;;;;2.88;1.92;;;32.40;99.90;;;;;;5076295;28;20036;-83
2022/08/12 11:59:56;;;;;;;4.07;2.00;;;32.40;99.90;;;;;;5064061;28;20090;-83
2022/08/12 12:02:22;;;;;;;3.95;1.80;;;32.70;99.90;;;;;;5083044;28;20353;-84
2022/08/12 12:04:49;;;;;;;3.70;1.90;;;32.60;99.90;;;;;;5059222;28;20044;-84
2022/08/12 12:07:15;;;;;;;3.83;2.00;;;32.40;99.90;;;;;;5077728;28;20047;-83
2022/08/12 12:09:41;;;;;;;4.72;1.88;;;32.60;99.90;;;;;;5047920;28;20048;-84
2022/08/12 12:12:07;;;;;;;4.10;1.90;;;32.70;99.90;;;;;;5043794;28;20065;-84
2022/08/12 12:14:33;;;;;;;5.28;2.00;;;32.50;99.90;;;;;;5078480;28;20040;-84
2022/08/12 12:16:58;;;;;;;3.63;1.98;;;32.70;99.90;;;;;;5100161;28;20040;-84
2022/08/12 12:19:24;;;;;;;5.78;2.00;;;31.80;99.90;;;;;;5048130;28;20518;-83
2022/08/12 12:21:50;;;;;;;2.92;2.28;;;32.50;99.90;;;;;;5074530;28;20044;-84
2022/08/12 12:24:16;;;;;;;2.08;1.70;;;32.90;99.90;;;;;;5085885;28;20047;-84
2022/08/12 12:26:42;;;;;;;3.38;1.88;;;33.00;99.90;;;;;;5071306;28;20445;-83
2022/08/12 12:29:08;;;;;;;4.88;1.98;;;33.10;99.90;;;;;;5049924;28;20040;-83
2022/08/12 12:31:33;;;;;;;2.75;1.80;;;33.30;99.90;;;;;;5075513;28;20042;-84
2022/08/12 12:33:59;;;;;;;3.22;1.80;;;33.30;99.90;;;;;;5096547;28;20123;-84
2022/08/12 12:36:26;;;;;;;4.53;1.73;;;33.20;99.90;;;;;;5081453;28;20047;-84
2022/08/12 12:38:51;;;;;;;3.50;1.65;;;33.30;99.90;;;;;;5068495;28;20079;-83
2022/08/12 12:41:17;;;;;;;4.68;1.80;;;33.20;99.90;;;;;;5093752;28;20072;-84
2022/08/12 12:43:43;;;;;;;4.55;2.00;;;33.60;99.90;;;;;;5068330;28;20037;-84
2022/08/12 12:46:08;;;;;;;2.67;1.90;;;33.60;99.90;;;;;;5060439;28;20464;-84
2022/08/12 12:48:34;;;;;;;3.85;1.70;;;33.80;99.90;;;;;;5070221;28;20040;-84
2022/08/12 12:51:15;;;;;;;2.47;1.80;;;33.40;99.90;;;;;;5050062;28;20043;-84
2022/08/12 12:53:44;;;;;;;3.00;1.60;;;33.10;99.90;;;;;;5048035;28;20456;-84
2022/08/12 12:56:16;;;;;;;3.50;1.85;;;33.10;99.90;;;;;;5083792;28;20041;-84
2022/08/12 12:58:42;;;;;;;3.17;1.85;;;33.10;99.90;;;;;;5067769;28;20055;-84
2022/08/12 13:01:09;;;;;;;2.63;1.60;;;33.40;99.90;;;;;;5048395;28;20479;-84
2022/08/12 13:03:34;;;;;;;4.57;1.75;;;33.90;99.90;;;;;;5072434;28;20050;-84
2022/08/12 13:06:01;;;;;;;4.97;2.35;;;34.20;99.90;;;;;;5071539;28;20120;-83
2022/08/12 13:08:30;;;;;;;2.63;1.80;;;34.20;99.90;;;;;;5046265;28;20041;-84
2022/08/12 13:11:04;;;;;;;3.25;1.80;;;34.00;99.90;;;;;;5064035;28;20075;-84
2022/08/12 13:13:33;;;;;;;2.88;1.70;;;34.30;99.90;;;;;;5057508;28;20457;-83
2022/08/12 13:16:00;;;;;;;5.78;1.80;;;34.40;99.90;;;;;;5048319;28;20435;-84
2022/08/12 13:18:35;;;;;;;4.40;1.80;;;34.50;99.90;;;;;;5064067;28;20523;-84
2022/08/12 13:21:09;;;;;;;3.35;1.90;;;34.80;99.90;;;;;;5065384;28;20054;-84
2022/08/12 13:23:36;;;;;;;3.70;1.90;;;34.50;99.90;;;;;;5066807;28;20419;-84
2022/08/12 13:26:02;;;;;;;5.95;1.80;;;33.80;99.90;;;;;;5096441;28;20155;-84
2022/08/12 13:28:30;;;;;;;4.10;1.77;;;34.30;99.90;;;;;;5045551;28;20044;-84
2022/08/12 13:30:58;;;;;;;3.13;1.80;;;34.50;99.90;;;;;;5095130;28;20072;-83
2022/08/12 13:33:25;;;;;;;2.22;1.65;;;35.00;99.90;;;;;;5047532;28;20044;-84
2022/08/12 13:36:00;;;;;;;4.13;2.05;;;35.00;99.90;;;;;;5055597;28;20269;-83
2022/08/12 13:38:39;;;;;;;3.10;1.75;;;35.20;99.90;;;;;;5045053;28;20097;-84
2022/08/12 13:41:13;;;;;;;6.25;1.92;;;34.60;99.90;;;;;;5094954;28;20119;-84
2022/08/12 13:43:39;;;;;;;;;;;34.60;99.90;;;;;;5041379;28;20103;-83
2022/08/12 13:46:08;;;;;;;5.72;1.90;;;34.60;99.90;;;;;;5078225;28;20703;-84
2022/08/12 13:48:35;;;;;;;2.28;1.90;;;34.70;99.90;;;;;;5076055;28;20094;-84
2022/08/12 13:51:01;;;;;;;2.83;1.88;;;34.80;99.90;;;;;;5063100;28;20091;-83
2022/08/12 13:53:28;;;;;;;2.00;1.80;;;35.10;99.90;;;;;;5073620;28;20049;-84
2022/08/12 13:55:53;;;;;;;5.30;1.65;;;35.20;99.90;;;;;;5062612;28;20036;-84
2022/08/12 13:58:20;;;;;;;3.40;1.90;;;35.10;99.90;;;;;;5096773;28;20044;-84
2022/08/12 14:00:50;;;;;;;6.38;1.90;;;35.40;99.90;;;;;;5066397;28;20126;-84
2022/08/12 14:03:20;;;;;;;3.20;1.80;;;34.50;99.90;;;;;;5071205;28;20048;-84
2022/08/12 14:05:47;;;;;;;6.45;1.73;;;35.00;99.90;;;;;;5061468;28;20409;-84
2022/08/12 14:08:14;;;;;;;1.90;1.55;;;35.20;99.90;;;;;;5063400;28;20967;-84
2022/08/12 14:10:49;;;;;;;2.83;1.77;;;34.90;99.90;;;;;;5046777;28;20040;-84
2022/08/12 14:13:17;;;;;;;2.90;1.80;;;34.50;99.90;;;;;;5052073;28;20495;-84
2022/08/12 14:15:52;;;;;;;2.38;1.83;;;35.10;99.90;;;;;;5096290;28;20123;-84
2022/08/12 14:18:20;;;;;;;4.03;1.88;;;35.00;99.90;;;;;;5074211;28;20149;-84
2022/08/12 14:20:56;;;;;;;4.15;2.00;;;35.20;99.90;;;;;;5043146;28;20063;-84
2022/08/12 14:23:23;;;;;;;3.97;1.55;;;35.50;99.90;;;;;;5063369;28;20043;-84
2022/08/12 14:25:50;;;;;;;4.30;2.10;;;34.70;99.90;;;;;;5062947;28;20255;-84
2022/08/12 14:28:17;;;;;;;4.07;1.90;;;34.30;99.90;;;;;;5078032;28;20494;-84
2022/08/12 14:30:55;;;;;;;2.28;1.75;;;34.80;99.90;;;;;;5076579;28;20040;-84
2022/08/12 14:33:22;;;;;;;4.15;1.70;;;35.40;99.90;;;;;;5043367;28;20484;-84
2022/08/12 14:35:49;;;;;;;4.35;1.70;;;35.70;99.90;;;;;;5065531;28;20503;-84
2022/08/12 14:38:22;;;;;;;8.55;1.80;;;35.50;99.90;;;;;;5061857;28;20127;-84
2022/08/12 14:40:51;;;;;;;3.85;1.85;;;36.10;99.90;;;;;;5046032;28;20040;-84